Time;durP1;ratioP1;P1;durP2;ratioP2;P2;SDS_P1;SDS_P2;PMS_P1;PMS_P2;Temp;Humidity;BMP_temperature;BMP_pressure;BME280_temperature;BME280_humidity;BME280_pressure;Samples;Min_cycle;Max_cycle;Signal;HPM_P1;HPM_P2
2022/02/20 00:00:53;;;;;;;2.72;0.80;;;;;;;9.73;53.92;101820.06;2089053;28;20056;-73
2022/02/20 00:02:17;;;;;;;2.33;0.63;;;;;;;9.73;53.98;101828.00;2088169;28;20044;-73
2022/02/20 00:03:39;;;;;;;2.25;0.90;;;;;;;9.72;53.88;101823.56;2091531;28;20508;-74
2022/02/20 00:05:02;;;;;;;4.55;1.75;;;;;;;9.69;53.90;101820.81;2100243;28;20044;-74
2022/02/20 00:06:26;;;;;;;2.60;1.05;;;;;;;9.67;53.85;101815.50;2101761;28;20127;-74
2022/02/20 00:07:49;;;;;;;0.70;0.55;;;;;;;9.65;54.04;101824.19;2102806;28;20085;-74
2022/02/20 00:09:12;;;;;;;2.38;1.00;;;;;;;9.57;53.79;101818.66;2097804;28;20110;-74
2022/02/20 00:10:33;;;;;;;1.63;0.93;;;;;;;9.52;53.98;101821.09;2094384;28;20484;-74
2022/02/20 00:11:56;;;;;;;2.15;0.90;;;;;;;9.46;53.84;101806.78;2089569;28;20495;-73
2022/02/20 00:13:19;;;;;;;5.05;1.27;;;;;;;9.37;53.76;101810.00;2092490;28;20102;-74
2022/02/20 00:14:43;;;;;;;5.65;2.20;;;;;;;9.33;53.91;101801.91;2086220;28;20056;-73
2022/02/20 00:16:06;;;;;;;3.55;1.70;;;;;;;9.33;53.91;101815.97;2085553;28;20060;-73
2022/02/20 00:17:29;;;;;;;4.05;1.45;;;;;;;9.37;54.12;101817.00;2092150;28;20056;-73
2022/02/20 00:18:51;;;;;;;3.60;1.08;;;;;;;9.43;53.87;101810.22;2100281;28;20436;-73
2022/02/20 00:20:12;;;;;;;2.00;0.90;;;;;;;9.48;53.62;101810.38;2093988;28;20048;-74
2022/02/20 00:21:35;;;;;;;2.13;0.75;;;;;;;9.53;53.38;101817.63;2089843;28;20075;-74
2022/02/20 00:23:00;;;;;;;2.92;1.10;;;;;;;9.56;53.21;101820.38;2099255;28;20047;-74
2022/02/20 00:24:23;;;;;;;5.53;1.40;;;;;;;9.60;52.99;101819.63;2102650;28;20502;-74
2022/02/20 00:25:48;;;;;;;3.08;0.98;;;;;;;9.64;52.92;101828.56;2088386;28;20041;-74
2022/02/20 00:27:11;;;;;;;1.90;0.57;;;;;;;9.67;53.03;101825.13;2085624;28;20045;-74
2022/02/20 00:28:33;;;;;;;2.67;0.70;;;;;;;9.70;52.78;101817.34;2101246;28;20052;-74
2022/02/20 00:29:58;;;;;;;0.28;0.28;;;;;;;9.79;52.70;101815.03;2090019;28;20576;-74
2022/02/20 00:31:22;;;;;;;1.33;0.32;;;;;;;9.84;52.50;101817.00;2100125;28;20559;-74
2022/02/20 00:32:45;;;;;;;4.05;0.65;;;;;;;9.89;52.56;101812.78;2102906;28;20040;-74
2022/02/20 00:34:07;;;;;;;1.40;0.55;;;;;;;9.94;52.11;101811.19;2094127;28;20464;-74
2022/02/20 00:35:29;;;;;;;2.17;0.40;;;;;;;10.00;52.13;101815.78;2102604;28;20567;-74
2022/02/20 00:36:52;;;;;;;4.25;0.50;;;;;;;10.05;51.98;101814.19;2094193;28;20049;-74
2022/02/20 00:38:15;;;;;;;1.00;0.40;;;;;;;10.10;51.72;101811.75;2093152;28;20534;-74
2022/02/20 00:39:37;;;;;;;1.35;0.70;;;;;;;10.11;51.66;101814.41;2094421;28;20463;-74
2022/02/20 00:40:59;;;;;;;4.53;0.90;;;;;;;10.13;51.72;101812.72;2091499;28;20093;-74
2022/02/20 00:42:22;;;;;;;0.93;0.70;;;;;;;10.13;51.60;101818.00;2086908;28;20045;-74
2022/02/20 00:43:44;;;;;;;2.80;0.82;;;;;;;10.13;51.70;101820.63;2099796;28;20062;-74
2022/02/20 00:45:08;;;;;;;2.30;0.57;;;;;;;10.15;51.52;101823.34;2093994;28;20045;-74
2022/02/20 00:46:32;;;;;;;3.47;0.95;;;;;;;10.07;51.31;101816.88;2091820;28;20614;-74
2022/02/20 00:47:54;;;;;;;1.45;0.88;;;;;;;9.96;51.62;101827.97;2091603;28;20093;-74
2022/02/20 00:49:19;;;;;;;4.22;2.05;;;;;;;9.86;51.91;101828.47;2094718;28;20048;-74
2022/02/20 00:50:41;;;;;;;1.95;1.00;;;;;;;9.81;51.98;101821.25;2088295;28;20147;-73
2022/02/20 00:52:04;;;;;;;3.63;1.40;;;;;;;9.86;52.17;101825.84;2079910;28;20045;-73
2022/02/20 00:53:29;;;;;;;3.55;0.65;;;;;;;9.86;51.88;101814.41;2095798;28;20068;-74
2022/02/20 00:54:51;;;;;;;3.30;0.80;;;;;;;9.82;51.93;101823.06;2088509;28;20106;-74
2022/02/20 00:56:13;;;;;;;10.05;3.70;;;;;;;9.77;52.02;101830.81;2085958;28;20503;-74
2022/02/20 00:57:37;;;;;;;9.02;4.72;;;;;;;9.76;51.85;101831.66;2077922;28;20099;-74
2022/02/20 00:58:59;;;;;;;9.43;4.88;;;;;;;9.76;51.92;101830.75;2097357;28;20040;-73
2022/02/20 01:00:24;;;;;;;6.85;2.20;;;;;;;9.78;52.14;101829.06;2082865;28;20140;-74
2022/02/20 01:01:46;;;;;;;5.75;1.90;;;;;;;9.79;52.06;101828.22;2082611;28;20504;-74
2022/02/20 01:03:09;;;;;;;6.60;2.03;;;;;;;9.82;51.87;101830.97;2091544;28;20052;-74
2022/02/20 01:04:32;;;;;;;5.97;1.38;;;;;;;9.80;52.06;101836.19;2084735;28;20049;-74
2022/02/20 01:05:55;;;;;;;4.10;1.90;;;;;;;9.77;52.15;101838.72;2074770;28;20377;-73
2022/02/20 01:07:18;;;;;;;1.60;0.90;;;;;;;9.75;51.94;101831.59;2084005;28;20053;-74
2022/02/20 01:08:40;;;;;;;1.73;0.50;;;;;;;9.69;52.12;101829.63;2085680;28;20041;-74
2022/02/20 01:10:06;;;;;;;1.90;0.77;;;;;;;9.63;52.08;101836.41;2083567;28;20056;-74
2022/02/20 01:11:28;;;;;;;0.43;0.40;;;;;;;9.50;51.88;101829.81;2097541;28;20387;-74
2022/02/20 01:12:51;;;;;;;0.70;0.30;;;;;;;9.42;52.15;101836.53;2093838;28;20098;-74
2022/02/20 01:14:14;;;;;;;0.80;0.50;;;;;;;9.38;52.10;101842.53;2085991;28;20040;-74
2022/02/20 01:15:38;;;;;;;2.50;0.93;;;;;;;9.41;51.96;101840.88;2093200;28;20044;-74
2022/02/20 01:17:01;;;;;;;3.63;1.05;;;;;;;9.43;51.83;101844.50;2087447;28;20139;-74
2022/02/20 01:18:24;;;;;;;4.03;2.40;;;;;;;9.48;51.81;101844.66;2079097;28;20061;-73
2022/02/20 01:19:48;;;;;;;5.00;3.28;;;;;;;9.54;51.86;101840.50;2084694;28;20055;-74
2022/02/20 01:21:10;;;;;;;3.45;2.25;;;;;;;9.59;51.84;101843.31;2095824;28;20044;-73
2022/02/20 01:22:32;;;;;;;3.75;1.80;;;;;;;9.62;51.85;101840.78;2097138;28;20040;-73
2022/02/20 01:23:55;;;;;;;4.22;1.38;;;;;;;9.66;52.07;101839.16;2095533;28;20535;-73
2022/02/20 01:25:18;;;;;;;3.67;1.63;;;;;;;9.68;52.07;101842.75;2087592;28;20144;-73
2022/02/20 01:26:41;;;;;;;2.13;1.17;;;;;;;9.67;52.01;101836.56;2086047;28;20052;-73
2022/02/20 01:28:05;;;;;;;3.75;1.33;;;;;;;9.62;52.06;101837.25;2084922;28;20563;-73
2022/02/20 01:29:28;;;;;;;1.27;0.50;;;;;;;9.56;52.02;101844.09;2094355;28;20831;-73
2022/02/20 01:30:50;;;;;;;2.85;1.40;;;;;;;9.52;52.32;101850.09;2087332;28;20053;-73
2022/02/20 01:32:13;;;;;;;3.78;1.33;;;;;;;9.49;52.28;101851.72;2092424;28;20048;-74
2022/02/20 01:33:35;;;;;;;4.68;1.50;;;;;;;9.49;52.45;101847.34;2083161;28;20090;-73
2022/02/20 01:34:58;;;;;;;3.97;2.20;;;;;;;9.48;52.61;101849.91;2085000;28;20056;-74
2022/02/20 01:36:21;;;;;;;7.68;1.73;;;;;;;9.51;52.26;101839.50;2092886;28;20484;-73
2022/02/20 01:37:47;;;;;;;1.17;0.75;;;;;;;9.56;52.35;101846.75;2079249;28;20050;-73
2022/02/20 01:39:09;;;;;;;3.60;1.88;;;;;;;9.55;52.34;101841.41;2090954;28;20048;-74
2022/02/20 01:40:32;;;;;;;2.45;1.20;;;;;;;9.59;52.65;101852.09;2102998;28;20555;-73
2022/02/20 01:42:01;;;;;;;2.47;1.00;;;;;;;9.59;52.55;101852.09;2091037;28;20056;-74
2022/02/20 01:43:23;;;;;;;3.78;0.80;;;;;;;9.61;52.57;101857.44;2092851;28;20045;-74
2022/02/20 01:44:47;;;;;;;2.85;0.80;;;;;;;9.57;52.69;101860.81;2103706;28;20697;-74
2022/02/20 01:46:11;;;;;;;2.95;0.80;;;;;;;9.53;52.94;101858.88;2081705;28;20057;-74
2022/02/20 01:47:34;;;;;;;1.83;1.00;;;;;;;9.48;53.24;101866.63;2084730;28;20033;-74
2022/02/20 01:48:57;;;;;;;1.27;0.60;;;;;;;9.49;53.42;101860.53;2086166;28;20069;-74
2022/02/20 01:50:20;;;;;;;1.27;0.50;;;;;;;9.49;53.38;101862.25;2101484;28;20095;-74
2022/02/20 01:51:46;;;;;;;1.58;1.30;;;;;;;9.51;53.26;101868.50;2082582;28;20129;-74
2022/02/20 01:53:09;;;;;;;1.70;0.88;;;;;;;9.52;53.19;101860.63;2074562;28;20107;-74
2022/02/20 01:54:31;;;;;;;4.40;1.50;;;;;;;9.52;53.13;101858.00;2080802;28;20041;-74
2022/02/20 01:55:54;;;;;;;4.97;1.80;;;;;;;9.54;53.02;101865.97;2100432;28;20123;-74
2022/02/20 01:57:32;;;;;;;6.57;3.00;;;;;;;9.52;53.40;101860.63;2093905;28;20047;-74
2022/02/20 01:59:08;;;;;;;8.63;2.47;;;;;;;9.49;53.22;101860.53;2103126;28;20036;-74
2022/02/20 02:00:36;;;;;;;9.73;3.08;;;;;;;9.43;52.99;101862.03;2098025;28;20056;-73
2022/02/20 02:02:20;;;;;;;9.60;4.07;;;;;;;9.41;53.22;101858.44;2097819;28;20139;-74
2022/02/20 02:03:52;;;;;;;10.10;4.00;;;;;;;9.41;53.15;101854.06;2092124;28;20048;-74
2022/02/20 02:05:34;;;;;;;4.40;1.60;;;;;;;9.44;53.02;101858.56;2089366;28;20049;-74
2022/02/20 02:06:57;;;;;;;6.50;1.98;;;;;;;9.41;53.31;101848.78;2086958;28;20051;-73
2022/02/20 02:08:47;;;;;;;2.78;1.23;;;;;;;9.37;53.44;101843.38;2088841;28;20072;-74
2022/02/20 02:10:22;;;;;;;5.03;1.25;;;;;;;9.33;53.51;101847.59;2094848;28;20045;-73
2022/02/20 02:12:09;;;;;;;3.58;1.33;;;;;;;9.28;53.60;101846.53;2100806;28;20047;-74
2022/02/20 02:14:01;;;;;;;1.58;1.00;;;;;;;9.19;53.84;101848.81;2076898;28;20056;-74
2022/02/20 02:15:50;;;;;;;3.75;1.58;;;;;;;9.18;53.73;101849.66;2089205;28;20087;-74
2022/02/20 02:17:33;;;;;;;2.65;1.42;;;;;;;9.18;54.28;101849.66;2097277;28;20040;-73
2022/02/20 02:19:14;;;;;;;2.25;0.90;;;;;;;9.18;54.22;101847.03;2099554;28;20135;-74
2022/02/20 02:20:43;;;;;;;4.00;1.50;;;;;;;9.22;54.43;101843.66;2093784;28;20695;-73
2022/02/20 02:22:13;;;;;;;4.07;0.90;;;;;;;9.27;54.27;101838.56;2098774;28;20036;-74
2022/02/20 02:24:16;;;;;;;1.73;0.80;;;;;;;9.29;54.33;101831.63;2081004;28;20088;-73
2022/02/20 02:26:08;;;;;;;2.42;0.85;;;;;;;9.29;54.49;101837.78;2076080;28;20053;-73
2022/02/20 02:27:46;;;;;;;2.78;1.08;;;;;;;9.30;54.70;101843.97;2079746;28;20616;-74
2022/02/20 02:29:27;;;;;;;2.53;1.40;;;;;;;9.28;54.75;101843.91;2081562;28;20052;-73
2022/02/20 02:30:50;;;;;;;14.23;1.02;;;;;;;9.17;54.80;101839.97;2076822;28;20060;-74
2022/02/20 02:32:14;;;;;;;2.25;0.80;;;;;;;9.05;55.08;101831.59;2074023;28;20045;-74
2022/02/20 02:33:37;;;;;;;1.40;1.13;;;;;;;9.02;55.09;101836.72;2087428;28;20041;-73
2022/02/20 02:35:00;;;;;;;4.25;1.20;;;;;;;9.01;55.29;101843.72;2086102;28;20045;-74
2022/02/20 02:36:24;;;;;;;6.82;2.13;;;;;;;9.04;55.23;101840.34;2084938;28;20052;-74
2022/02/20 02:37:48;;;;;;;10.45;1.52;;;;;;;9.07;55.19;101837.81;2100656;28;20036;-73
2022/02/20 02:39:10;;;;;;;3.20;1.10;;;;;;;9.07;54.91;101837.81;2083908;28;20049;-74
2022/02/20 02:40:32;;;;;;;1.85;1.05;;;;;;;9.08;55.12;101837.88;2083817;28;20087;-73
2022/02/20 02:41:55;;;;;;;1.13;0.63;;;;;;;9.08;55.03;101831.69;2084325;28;20041;-73
2022/02/20 02:43:17;;;;;;;3.30;1.08;;;;;;;9.08;55.12;101834.34;2084363;28;20049;-73
2022/02/20 02:44:39;;;;;;;7.05;1.40;;;;;;;9.07;54.87;101833.44;2099902;28;20044;-73
2022/02/20 02:46:02;;;;;;;1.38;0.40;;;;;;;9.02;55.15;101834.09;2089359;28;20098;-73
2022/02/20 02:47:25;;;;;;;0.43;0.40;;;;;;;8.95;55.08;101842.59;2084283;28;20045;-73
2022/02/20 02:48:49;;;;;;;2.08;0.65;;;;;;;8.87;55.44;101841.38;2092600;28;20040;-73
2022/02/20 02:50:15;;;;;;;0.20;0.20;;;;;;;8.76;55.64;101836.59;2095703;28;20139;-74
2022/02/20 02:51:37;;;;;;;0.30;0.15;;;;;;;8.71;55.99;101851.31;2085340;28;20087;-74
2022/02/20 02:53:05;;;;;;;0.77;0.40;;;;;;;8.69;56.15;101850.34;2092536;28;20118;-74
2022/02/20 02:54:28;;;;;;;4.40;0.82;;;;;;;8.67;56.02;101853.75;2089608;28;20053;-74
2022/02/20 02:55:52;;;;;;;1.85;0.32;;;;;;;8.67;56.14;101852.00;2100490;28;20051;-74
2022/02/20 02:57:15;;;;;;;4.53;1.40;;;;;;;8.66;55.95;101855.47;2098174;28;20085;-74
2022/02/20 02:58:37;;;;;;;7.63;1.95;;;;;;;8.70;55.96;101854.78;2093256;28;20424;-73
2022/02/20 03:00:06;;;;;;;2.58;1.33;;;;;;;8.82;55.94;101861.38;2092803;28;20110;-74
2022/02/20 03:01:29;;;;;;;2.00;0.90;;;;;;;8.89;55.81;101861.69;2092702;28;20456;-74
2022/02/20 03:02:50;;;;;;;0.43;0.38;;;;;;;8.99;55.56;101855.94;2095061;28;20472;-74
2022/02/20 03:04:14;;;;;;;3.70;0.70;;;;;;;9.08;55.57;101863.31;2097154;28;20048;-74
2022/02/20 03:05:36;;;;;;;1.80;0.70;;;;;;;9.14;55.16;101856.53;2091827;28;20550;-73
2022/02/20 03:06:58;;;;;;;1.73;0.65;;;;;;;9.20;55.29;101855.88;2098300;28;20123;-73
2022/02/20 03:08:22;;;;;;;1.35;0.52;;;;;;;9.28;55.25;101859.72;2088226;28;20153;-73
2022/02/20 03:09:46;;;;;;;2.28;0.85;;;;;;;9.31;55.08;101859.84;2084382;28;20057;-73
2022/02/20 03:11:08;;;;;;;2.45;1.17;;;;;;;9.35;55.21;101858.22;2084007;28;20546;-73
2022/02/20 03:12:31;;;;;;;;;;;;;;;9.33;55.29;101865.16;2091863;28;20055;-73
2022/02/20 03:13:52;;;;;;;2.13;1.17;;;;;;;9.22;55.51;101856.84;2075704;28;20478;-73
2022/02/20 03:15:19;;;;;;;4.25;1.10;;;;;;;9.22;55.38;101859.47;2093338;28;20044;-73
2022/02/20 03:16:41;;;;;;;0.80;0.28;;;;;;;9.27;55.35;101855.28;2084600;28;20038;-73
2022/02/20 03:18:04;;;;;;;0.85;0.50;;;;;;;9.30;55.71;101858.03;2094576;28;20047;-73
2022/02/20 03:19:25;;;;;;;1.30;0.55;;;;;;;9.36;55.64;101854.72;2091845;28;20055;-73
2022/02/20 03:20:48;;;;;;;0.90;0.63;;;;;;;9.41;55.89;101859.34;2092041;28;20045;-72
2022/02/20 03:22:11;;;;;;;0.40;0.25;;;;;;;9.44;55.61;101861.19;2085480;28;20047;-73
2022/02/20 03:23:37;;;;;;;0.68;0.20;;;;;;;9.36;55.30;101867.91;2082789;28;20149;-74
2022/02/20 03:24:58;;;;;;;0.68;0.52;;;;;;;9.21;55.62;101873.47;2079153;28;20053;-74
2022/02/20 03:26:21;;;;;;;0.43;0.43;;;;;;;9.08;55.69;101884.38;2090654;28;20132;-73
2022/02/20 03:27:46;;;;;;;0.20;0.20;;;;;;;8.94;55.80;101883.81;2082568;28;20091;-74
2022/02/20 03:29:18;;;;;;;3.28;0.68;;;;;;;8.86;56.01;101887.88;2095886;28;20471;-72
2022/02/20 03:30:41;;;;;;;4.40;1.90;;;;;;;8.85;55.88;101891.38;2092319;28;20108;-73
2022/02/20 03:32:07;;;;;;;2.63;1.33;;;;;;;8.93;56.06;101896.91;2092177;28;20051;-74
2022/02/20 03:33:30;;;;;;;5.13;2.22;;;;;;;9.01;55.75;101892.88;2090617;28;20040;-73
2022/02/20 03:34:54;;;;;;;0.98;0.93;;;;;;;9.10;55.84;101894.16;2084075;28;20128;-73
2022/02/20 03:36:17;;;;;;;1.92;0.82;;;;;;;9.15;55.44;101889.94;2070191;28;20409;-74
2022/02/20 03:37:40;;;;;;;3.92;1.77;;;;;;;9.23;55.45;101897.25;2097582;28;20039;-74
2022/02/20 03:39:04;;;;;;;2.30;1.40;;;;;;;9.24;55.34;101899.97;2082691;28;20045;-74
2022/02/20 03:40:26;;;;;;;4.63;1.48;;;;;;;9.22;55.70;101899.00;2078117;28;20104;-75
2022/02/20 03:41:48;;;;;;;3.70;1.48;;;;;;;9.23;55.62;101898.16;2087511;28;20488;-73
2022/02/20 03:43:31;;;;;;;1.13;0.50;;;;;;;9.27;55.58;101884.25;2102992;28;20105;-74
2022/02/20 03:44:58;;;;;;;5.43;2.30;;;;;;;9.33;55.48;101883.59;2088976;28;20536;-74
2022/02/20 03:46:21;;;;;;;2.35;0.95;;;;;;;9.37;55.45;101882.88;2083735;28;20060;-74
2022/02/20 03:48:04;;;;;;;;;;;;;;;9.39;55.25;101883.81;2097460;28;20041;-74
2022/02/20 03:49:28;;;;;;;2.72;0.93;;;;;;;9.35;55.42;101884.56;2081108;28;19920;-73
2022/02/20 03:51:29;;;;;;;0.98;0.38;;;;;;;9.34;55.40;101882.75;2097821;28;20054;-73
2022/02/20 03:52:53;;;;;;;1.77;0.70;;;;;;;9.36;55.52;101884.63;2093612;28;20483;-73
2022/02/20 03:54:21;;;;;;;1.75;0.65;;;;;;;9.39;55.54;101879.44;2092419;28;20706;-73
2022/02/20 03:55:44;;;;;;;3.78;1.30;;;;;;;9.38;55.53;101882.06;2085019;28;20088;-73
2022/02/20 03:57:06;;;;;;;3.03;2.00;;;;;;;9.36;55.58;101884.63;2090799;28;20236;-73
2022/02/20 03:58:57;;;;;;;2.25;0.80;;;;;;;9.36;55.24;101884.63;2086830;28;20395;-74
2022/02/20 04:00:23;;;;;;;0.88;0.60;;;;;;;9.36;55.33;101874.09;2079260;28;20049;-73
2022/02/20 04:02:06;;;;;;;1.23;0.40;;;;;;;9.34;55.32;101888.03;2086862;28;20099;-73
2022/02/20 04:03:29;;;;;;;0.57;0.52;;;;;;;9.33;55.42;101881.84;2077989;28;20045;-74
2022/02/20 04:04:52;;;;;;;5.50;0.68;;;;;;;9.35;55.71;101885.47;2083795;28;20060;-74
2022/02/20 04:06:14;;;;;;;1.30;1.00;;;;;;;9.37;55.75;101889.06;2083546;28;20548;-74
2022/02/20 04:07:48;;;;;;;1.67;0.70;;;;;;;9.40;55.56;101886.53;2087653;28;20057;-74
2022/02/20 04:09:13;;;;;;;2.65;0.65;;;;;;;9.45;55.68;101892.00;2095046;28;20044;-74
2022/02/20 04:10:36;;;;;;;1.10;0.50;;;;;;;9.49;55.97;101886.88;2080607;28;20037;-73
2022/02/20 04:12:02;;;;;;;2.05;0.60;;;;;;;9.50;55.82;101886.06;2084556;28;20143;-74
2022/02/20 04:13:32;;;;;;;5.38;1.17;;;;;;;9.53;55.80;101883.50;2085744;28;20064;-74
2022/02/20 04:14:54;;;;;;;2.08;0.60;;;;;;;9.54;55.78;101882.69;2091945;28;20211;-74
2022/02/20 04:16:18;;;;;;;3.53;0.82;;;;;;;9.55;55.84;101883.59;2088672;28;20045;-74
2022/02/20 04:17:48;;;;;;;2.83;1.52;;;;;;;9.56;56.17;101878.38;2084947;28;20603;-74
2022/02/20 04:19:11;;;;;;;3.38;1.08;;;;;;;9.59;56.50;101881.09;2086476;28;20412;-74
2022/02/20 04:20:36;;;;;;;3.65;1.35;;;;;;;9.62;56.20;101880.34;2093876;28;20037;-74
2022/02/20 04:21:59;;;;;;;5.28;1.17;;;;;;;9.67;56.46;101883.13;2086043;28;20037;-74
2022/02/20 04:23:22;;;;;;;3.05;0.93;;;;;;;9.70;56.44;101881.53;2101915;28;20081;-73
2022/02/20 04:24:46;;;;;;;1.55;0.82;;;;;;;9.72;56.69;101876.28;2094753;28;20104;-74
2022/02/20 04:26:15;;;;;;;2.50;0.60;;;;;;;9.80;56.97;101870.47;2083943;28;20129;-74
2022/02/20 04:27:39;;;;;;;0.25;0.22;;;;;;;9.87;57.01;101871.56;2100278;28;20044;-74
2022/02/20 04:29:02;;;;;;;1.75;0.90;;;;;;;9.96;57.23;101867.53;2082903;28;20050;-75
2022/02/20 04:30:24;;;;;;;1.27;0.85;;;;;;;10.07;57.37;101867.91;2097698;28;20056;-74
2022/02/20 04:31:53;;;;;;;0.80;0.52;;;;;;;10.14;57.16;101861.13;2088655;28;20071;-74
2022/02/20 04:33:16;;;;;;;3.97;0.77;;;;;;;10.19;57.74;101854.28;2083665;28;20052;-74
2022/02/20 04:34:38;;;;;;;1.92;0.90;;;;;;;10.22;57.46;101857.03;2093388;28;20053;-74
2022/02/20 04:36:01;;;;;;;1.05;0.60;;;;;;;10.25;57.68;101859.75;2088236;28;20041;-74
2022/02/20 04:37:24;;;;;;;1.48;0.70;;;;;;;10.29;58.11;101861.69;2087173;28;20067;-74
2022/02/20 04:38:48;;;;;;;0.80;0.60;;;;;;;10.32;57.83;101856.50;2082457;28;20045;-74
2022/02/20 04:40:12;;;;;;;4.13;0.60;;;;;;;10.35;58.38;101861.91;2084577;28;20626;-74
2022/02/20 04:41:46;;;;;;;1.05;0.77;;;;;;;10.39;58.08;101863.78;2089035;28;20048;-74
2022/02/20 04:43:15;;;;;;;2.47;1.08;;;;;;;10.37;58.10;101866.34;2092441;28;20044;-74
2022/02/20 04:44:40;;;;;;;2.80;0.77;;;;;;;10.38;58.48;101859.34;2082605;28;20091;-75
2022/02/20 04:46:08;;;;;;;3.42;0.98;;;;;;;10.41;58.66;101863.84;2090743;28;20138;-74
2022/02/20 04:47:31;;;;;;;2.28;0.88;;;;;;;10.37;58.50;101854.94;2075530;28;20092;-74
2022/02/20 04:48:54;;;;;;;4.68;1.40;;;;;;;10.41;58.64;101856.81;2088631;28;20482;-74
2022/02/20 04:50:35;;;;;;;3.05;1.55;;;;;;;10.43;59.25;101854.25;2097917;28;20040;-74
2022/02/20 04:52:07;;;;;;;3.72;1.58;;;;;;;10.41;58.89;101851.53;2092586;28;20048;-74
2022/02/20 04:54:03;;;;;;;4.30;1.75;;;;;;;10.40;59.34;101841.81;2089444;28;20041;-74
2022/02/20 04:55:26;;;;;;;3.70;1.10;;;;;;;10.37;59.16;101849.66;2095858;28;20041;-74
2022/02/20 04:56:51;;;;;;;7.20;1.02;;;;;;;10.38;59.86;101839.13;2090245;28;20053;-74
2022/02/20 04:58:14;;;;;;;1.05;0.50;;;;;;;10.37;60.07;101845.25;2087664;28;20041;-74
2022/02/20 04:59:38;;;;;;;2.90;1.00;;;;;;;10.39;59.79;101840.94;2077055;28;20045;-74
2022/02/20 05:01:01;;;;;;;2.95;1.00;;;;;;;10.41;60.32;101840.97;2090096;28;20056;-74
2022/02/20 05:02:49;;;;;;;1.60;0.90;;;;;;;10.45;60.83;101834.94;2101549;28;20051;-73
2022/02/20 05:04:12;;;;;;;1.80;1.08;;;;;;;10.49;61.04;101835.97;2091700;28;20378;-74
2022/02/20 05:05:41;;;;;;;1.00;0.38;;;;;;;10.54;60.76;101829.97;2108166;28;20064;-73
2022/02/20 05:07:07;;;;;;;3.35;1.27;;;;;;;10.59;61.08;101823.09;2084562;28;20099;-74
2022/02/20 05:08:33;;;;;;;1.00;0.40;;;;;;;10.67;61.02;101818.06;2086711;28;20053;-74
2022/02/20 05:09:55;;;;;;;1.38;0.60;;;;;;;10.67;61.16;101812.78;2087510;28;20135;-74
2022/02/20 05:11:18;;;;;;;0.55;0.32;;;;;;;10.71;61.15;101812.03;2092918;28;20407;-74
2022/02/20 05:12:48;;;;;;;4.07;1.08;;;;;;;10.79;62.10;101807.91;2088947;28;20113;-73
2022/02/20 05:14:09;;;;;;;1.85;0.43;;;;;;;10.86;62.67;101801.06;2084958;28;20053;-74
2022/02/20 05:15:33;;;;;;;1.80;0.57;;;;;;;10.92;62.64;101799.50;2090139;28;20090;-74
2022/02/20 05:16:56;;;;;;;0.93;0.40;;;;;;;10.99;62.87;101796.19;2103967;28;20044;-74
2022/02/20 05:18:38;;;;;;;2.08;0.70;;;;;;;11.07;63.21;101796.44;2090972;28;20429;-73
2022/02/20 05:20:01;;;;;;;1.77;1.23;;;;;;;11.13;63.13;101788.69;2084863;28;20051;-74
2022/02/20 05:21:22;;;;;;;1.98;1.10;;;;;;;11.21;63.63;101794.22;2085242;28;20085;-74
2022/02/20 05:22:47;;;;;;;1.30;0.60;;;;;;;11.26;63.86;101795.22;2095713;28;20106;-74
2022/02/20 05:24:12;;;;;;;2.67;1.27;;;;;;;11.29;64.11;101795.34;2085488;28;20048;-74
2022/02/20 05:25:37;;;;;;;4.93;2.22;;;;;;;11.35;64.29;101796.41;2093034;28;20094;-75
2022/02/20 05:26:59;;;;;;;4.45;2.03;;;;;;;11.43;64.63;101796.59;2087372;28;20500;-74
2022/02/20 05:28:32;;;;;;;4.13;1.92;;;;;;;11.51;64.78;101803.00;2102814;28;20135;-73
2022/02/20 05:29:55;;;;;;;6.45;2.35;;;;;;;11.53;65.11;101810.16;2089835;28;20037;-73
2022/02/20 05:31:19;;;;;;;10.45;2.70;;;;;;;11.58;64.77;101812.91;2085071;28;20547;-73
2022/02/20 05:32:50;;;;;;;3.58;1.20;;;;;;;11.64;64.89;101806.91;2101434;28;20044;-73
2022/02/20 05:34:17;;;;;;;2.15;0.93;;;;;;;11.69;65.63;101805.28;2095886;28;20040;-73
2022/02/20 05:35:38;;;;;;;1.77;0.82;;;;;;;11.76;66.14;101807.25;2095487;28;20076;-74
2022/02/20 05:37:01;;;;;;;3.55;1.85;;;;;;;11.82;66.19;101808.34;2091249;28;20737;-73
2022/02/20 05:38:35;;;;;;;3.10;1.25;;;;;;;11.88;66.84;101811.13;2094124;28;20033;-74
2022/02/20 05:39:57;;;;;;;1.80;1.20;;;;;;;11.96;67.10;101808.72;2095362;28;20079;-74
2022/02/20 05:41:21;;;;;;;2.60;1.10;;;;;;;12.02;66.84;101811.50;2082163;28;20462;-74
2022/02/20 05:42:43;;;;;;;4.57;1.48;;;;;;;12.10;67.20;101812.63;2101382;28;20055;-74
2022/02/20 05:44:07;;;;;;;;;;;;;;;12.22;66.90;101817.31;2090388;28;20053;-74
2022/02/20 05:45:35;;;;;;;3.63;1.15;;;;;;;12.24;67.44;101811.22;2102616;28;20359;-74
2022/02/20 05:47:06;;;;;;;2.65;1.02;;;;;;;12.31;67.25;101813.19;2081237;28;20075;-73
2022/02/20 05:48:28;;;;;;;3.13;1.35;;;;;;;12.38;67.18;101815.13;2088496;28;20135;-74
2022/02/20 05:50:17;;;;;;;1.27;0.85;;;;;;;12.54;67.70;101818.13;2114340;28;20119;-73
2022/02/20 05:51:42;;;;;;;4.93;1.58;;;;;;;12.70;67.70;101820.31;2091917;28;20044;-74
2022/02/20 05:53:14;;;;;;;6.25;1.77;;;;;;;12.89;67.52;101813.69;2091218;28;20044;-74
2022/02/20 05:54:37;;;;;;;0.77;0.73;;;;;;;13.06;67.21;101810.53;2084700;28;20053;-74
2022/02/20 05:56:01;;;;;;;4.95;1.00;;;;;;;13.24;66.89;101804.81;2084634;28;20056;-74
2022/02/20 05:57:42;;;;;;;2.13;0.82;;;;;;;13.41;66.49;101810.44;2078387;28;20056;-73
2022/02/20 05:59:04;;;;;;;7.90;1.55;;;;;;;13.59;66.52;101802.84;2087213;28;20060;-74
2022/02/20 06:00:29;;;;;;;3.05;1.33;;;;;;;13.79;66.24;101797.94;2086995;28;20053;-73
2022/02/20 06:01:57;;;;;;;3.78;1.60;;;;;;;13.96;65.91;101791.22;2085183;28;20048;-74
2022/02/20 06:03:23;;;;;;;4.03;2.10;;;;;;;14.10;65.94;101800.31;2091312;28;20492;-74
2022/02/20 06:05:06;;;;;;;;;;;;;;;14.28;65.79;101783.78;2106477;28;20131;-74
2022/02/20 06:06:34;;;;;;;3.42;1.08;;;;;;;14.43;65.92;101783.19;2093000;28;20417;-75
2022/02/20 06:08:02;;;;;;;1.60;1.08;;;;;;;14.57;65.42;101763.91;2098369;28;20462;-74
2022/02/20 06:09:45;;;;;;;1.92;1.00;;;;;;;14.76;65.53;101773.09;2089381;28;20366;-74
2022/02/20 06:11:27;;;;;;;3.15;1.33;;;;;;;14.91;65.74;101762.66;2096116;28;20048;-74
2022/02/20 06:13:17;;;;;;;2.30;1.10;;;;;;;15.07;65.65;101750.47;2092585;28;20107;-74
2022/02/20 06:15:04;;;;;;;4.63;1.33;;;;;;;15.26;65.54;101756.91;2067836;28;20077;-74
2022/02/20 06:16:48;;;;;;;3.28;0.85;;;;;;;15.45;65.73;101756.25;2096181;28;20048;-74
2022/02/20 06:18:35;;;;;;;3.67;1.10;;;;;;;15.58;65.60;101758.22;2104424;28;20056;-74
2022/02/20 06:20:17;;;;;;;2.70;1.20;;;;;;;15.70;65.40;101753.03;2097782;28;20583;-74
2022/02/20 06:22:00;;;;;;;;;;;;;;;15.83;64.53;101756.69;2100073;28;20786;-74
2022/02/20 06:23:40;;;;;;;2.05;0.93;;;;;;;15.91;64.29;101753.25;2088902;28;19924;-75
2022/02/20 06:25:20;;;;;;;2.28;0.95;;;;;;;15.95;64.14;101752.38;2088405;28;20484;-74
2022/02/20 06:26:49;;;;;;;6.78;1.50;;;;;;;15.89;63.50;101754.09;2092009;28;20431;-74
2022/02/20 06:28:11;;;;;;;3.17;1.30;;;;;;;15.94;63.45;101763.94;2090646;28;20068;-74
2022/02/20 06:29:33;;;;;;;3.78;1.20;;;;;;;16.07;63.55;101756.06;2100730;28;20105;-74
2022/02/20 06:30:55;;;;;;;6.85;1.40;;;;;;;16.11;63.44;101761.41;2095096;28;20110;-75
2022/02/20 06:32:24;;;;;;;6.50;1.70;;;;;;;16.08;63.48;101760.53;2093530;28;20083;-74
2022/02/20 06:33:51;;;;;;;3.13;1.20;;;;;;;16.00;64.13;101762.22;2091056;28;20052;-75
2022/02/20 06:35:14;;;;;;;5.32;1.20;;;;;;;16.03;64.39;101767.53;2093822;28;20146;-74
2022/02/20 06:36:39;;;;;;;2.47;1.33;;;;;;;16.11;64.77;101760.53;2092584;28;20056;-75
2022/02/20 06:38:02;;;;;;;4.57;1.77;;;;;;;16.24;64.82;101754.44;2078926;28;20061;-74
2022/02/20 06:39:26;;;;;;;1.20;0.77;;;;;;;16.39;64.37;101762.56;2078469;28;20037;-74
2022/02/20 06:40:49;;;;;;;5.65;1.70;;;;;;;16.50;64.63;101766.19;2094087;28;20052;-75
2022/02/20 06:42:16;;;;;;;2.97;1.73;;;;;;;16.60;64.13;101772.53;2088761;28;20041;-75
2022/02/20 06:43:41;;;;;;;3.55;1.35;;;;;;;16.66;64.10;101778.78;2101602;28;20044;-74
2022/02/20 06:45:38;;;;;;;2.28;1.20;;;;;;;16.79;63.93;101779.75;2081022;28;20050;-74
2022/02/20 06:47:20;;;;;;;3.25;1.23;;;;;;;16.90;64.03;101778.03;2096121;28;20091;-74
2022/02/20 06:49:07;;;;;;;3.95;1.80;;;;;;;17.02;64.01;101766.53;2090068;28;20051;-75